createdAt,value
2022-09-29T00:02:24.622Z,12.80
2022-09-29T00:05:28.315Z,12.43
2022-09-29T00:08:33.308Z,12.20
2022-09-29T00:11:36.920Z,12.70
2022-09-29T00:14:43.592Z,11.90
2022-09-29T00:18:12.234Z,12.07
2022-09-29T00:21:16.466Z,13.07
2022-09-29T00:24:21.421Z,13.17
2022-09-29T00:27:25.051Z,12.83
2022-09-29T00:30:29.419Z,13.40
2022-09-29T00:33:34.232Z,13.17
2022-09-29T00:36:38.409Z,12.30
2022-09-29T00:39:43.330Z,12.67
2022-09-29T00:42:46.946Z,13.37
2022-09-29T00:45:52.606Z,13.13
2022-09-29T00:49:01.178Z,12.10
2022-09-29T00:52:11.945Z,13.27
2022-09-29T00:55:24.994Z,12.23
2022-09-29T00:58:35.748Z,12.70
2022-09-29T01:01:39.484Z,12.80
2022-09-29T01:04:43.218Z,11.90
2022-09-29T01:07:47.252Z,12.37
2022-09-29T01:10:54.449Z,12.30
2022-09-29T01:14:05.083Z,12.93
2022-09-29T01:17:08.780Z,11.73
2022-09-29T01:20:17.296Z,12.63
2022-09-29T01:24:10.419Z,11.60
2022-09-29T01:27:34.766Z,10.10
2022-09-29T01:31:09.944Z,9.97
2022-09-29T01:34:25.215Z,9.83
2022-09-29T01:37:43.338Z,10.17
2022-09-29T01:40:57.589Z,10.57
2022-09-29T01:44:10.036Z,11.60
2022-09-29T01:47:22.664Z,10.60
2022-09-29T01:50:34.824Z,11.17
2022-09-29T01:53:45.215Z,10.90
2022-09-29T01:56:56.793Z,11.37
2022-09-29T02:00:09.614Z,12.00
2022-09-29T02:03:22.107Z,12.37
2022-09-29T02:06:36.588Z,12.47
2022-09-29T02:09:46.620Z,12.13
2022-09-29T02:12:54.158Z,12.47
2022-09-29T02:16:00.850Z,11.53
2022-09-29T02:19:16.547Z,11.20
2022-09-29T02:22:20.983Z,11.20
2022-09-29T02:25:25.711Z,10.60
2022-09-29T02:28:29.802Z,11.17
2022-09-29T02:31:34.453Z,10.60
2022-09-29T02:34:46.035Z,11.33
2022-09-29T02:38:05.230Z,12.40
2022-09-29T02:41:23.819Z,11.50
2022-09-29T02:44:56.964Z,11.40
2022-09-29T02:48:38.241Z,10.03
2022-09-29T02:51:50.487Z,10.40
2022-09-29T02:55:09.249Z,10.10
2022-09-29T02:58:21.684Z,10.13
2022-09-29T03:01:26.039Z,10.80
2022-09-29T03:04:30.062Z,9.77
2022-09-29T03:07:35.685Z,8.50
2022-09-29T03:10:39.238Z,8.90
2022-09-29T03:13:42.812Z,10.00
2022-09-29T03:16:46.383Z,8.33
2022-09-29T03:19:49.965Z,9.07
2022-09-29T03:22:57.916Z,8.43
2022-09-29T03:26:01.686Z,8.00
2022-09-29T03:29:05.251Z,7.07
2022-09-29T03:32:09.092Z,7.73
2022-09-29T03:35:13.309Z,6.47
2022-09-29T03:38:18.292Z,6.47
2022-09-29T03:41:21.893Z,6.07
2022-09-29T03:44:25.533Z,6.90
2022-09-29T03:47:29.152Z,6.43
2022-09-29T03:50:32.939Z,8.13
2022-09-29T03:53:38.652Z,9.37
2022-09-29T03:56:42.379Z,8.73
2022-09-29T03:59:46.093Z,8.13
2022-09-29T04:02:49.670Z,8.03
2022-09-29T04:05:53.279Z,8.53
2022-09-29T04:08:58.543Z,7.87
2022-09-29T04:12:02.715Z,9.77
2022-09-29T04:15:08.389Z,9.87
2022-09-29T04:18:11.958Z,8.43
2022-09-29T04:21:16.795Z,8.60
2022-09-29T04:24:21.774Z,7.97
2022-09-29T04:27:25.334Z,7.53
2022-09-29T04:30:28.951Z,7.07
2022-09-29T04:33:33.100Z,6.63
2022-09-29T04:36:36.663Z,7.53
2022-09-29T04:39:41.904Z,7.40
2022-09-29T04:42:45.482Z,7.70
2022-09-29T04:45:49.442Z,7.23
2022-09-29T04:48:53.038Z,6.73
2022-09-29T04:51:56.575Z,6.70
2022-09-29T04:55:01.506Z,6.97
2022-09-29T04:58:05.223Z,7.73
2022-09-29T05:01:13.022Z,7.60
2022-09-29T05:04:16.682Z,7.87
2022-09-29T05:07:20.244Z,8.17
2022-09-29T05:10:25.346Z,8.43
2022-09-29T05:13:28.868Z,11.10
2022-09-29T05:16:33.360Z,10.97
2022-09-29T05:19:37.175Z,11.93
2022-09-29T05:22:41.211Z,13.47
2022-09-29T05:25:46.611Z,13.27
2022-09-29T05:28:50.510Z,10.87
2022-09-29T05:31:54.556Z,10.50
2022-09-29T05:34:58.516Z,10.03
2022-09-29T05:38:02.027Z,9.00
2022-09-29T05:41:08.599Z,9.37
2022-09-29T05:44:12.210Z,8.93
2022-09-29T05:47:15.813Z,8.00
2022-09-29T05:50:19.388Z,9.37
2022-09-29T05:53:23.099Z,9.83
2022-09-29T05:56:29.227Z,11.80
2022-09-29T05:59:32.835Z,11.13
2022-09-29T06:02:36.431Z,9.97
2022-09-29T06:05:41.377Z,10.50
2022-09-29T06:08:46.283Z,11.47
2022-09-29T06:11:51.288Z,12.03
2022-09-29T06:14:54.915Z,12.70
2022-09-29T06:17:58.933Z,12.97
2022-09-29T06:21:04.187Z,10.67
2022-09-29T06:24:08.477Z,10.40
2022-09-29T06:27:13.374Z,9.40
2022-09-29T06:30:17.231Z,8.67
2022-09-29T06:33:21.691Z,7.97
2022-09-29T06:36:49.223Z,8.40
2022-09-29T06:39:52.802Z,8.30
2022-09-29T06:42:57.705Z,8.43
2022-09-29T06:46:01.381Z,8.97
2022-09-29T06:49:05.068Z,9.93
2022-09-29T06:52:18.526Z,10.33
2022-09-29T06:55:24.401Z,11.10
2022-09-29T06:58:30.334Z,11.43
2022-09-29T07:01:34.230Z,12.97
2022-09-29T07:04:38.383Z,14.90
2022-09-29T07:07:42.225Z,13.80
2022-09-29T07:10:48.898Z,14.70
2022-09-29T07:13:55.059Z,15.00
2022-09-29T07:17:00.627Z,16.03
2022-09-29T07:20:04.728Z,16.03
2022-09-29T07:23:09.206Z,16.33
2022-09-29T07:26:13.403Z,19.20
2022-09-29T07:29:18.673Z,18.07
2022-09-29T07:32:27.629Z,18.27
2022-09-29T07:35:34.233Z,21.03
2022-09-29T07:38:39.883Z,22.97
2022-09-29T07:41:43.495Z,23.53
2022-09-29T07:44:52.176Z,26.10
2022-09-29T07:47:58.485Z,25.30
2022-09-29T07:51:03.682Z,24.07
2022-09-29T07:54:07.698Z,25.80
2022-09-29T07:57:11.479Z,25.00
2022-09-29T08:00:17.256Z,25.47
2022-09-29T08:03:20.927Z,24.43
2022-09-29T08:06:26.792Z,23.80
2022-09-29T08:09:39.529Z,24.30
2022-09-29T08:12:44.794Z,26.37
2022-09-29T08:15:49.787Z,26.33
2022-09-29T08:18:53.386Z,27.23
2022-09-29T08:21:56.971Z,25.63
2022-09-29T08:25:00.507Z,25.90
2022-09-29T08:28:04.066Z,27.10
2022-09-29T08:31:14.180Z,26.60
2022-09-29T08:34:17.904Z,28.37
2022-09-29T08:37:21.497Z,30.07
2022-09-29T08:40:25.357Z,29.43
2022-09-29T08:43:35.560Z,30.13
2022-09-29T08:46:45.782Z,29.87
2022-09-29T08:49:56.343Z,29.17
2022-09-29T08:53:12.684Z,28.90
2022-09-29T08:56:24.718Z,29.13
2022-09-29T08:59:31.301Z,33.67
2022-09-29T09:03:36.152Z,33.63
2022-09-29T09:06:56.050Z,29.10
2022-09-29T09:10:22.903Z,28.73
2022-09-29T09:13:54.075Z,27.47
2022-09-29T09:17:17.226Z,28.30
2022-09-29T09:20:36.553Z,28.93
2022-09-29T09:23:58.245Z,30.27
2022-09-29T09:27:05.621Z,29.27
2022-09-29T09:30:18.118Z,29.93
2022-09-29T09:33:32.592Z,26.60
2022-09-29T09:36:44.478Z,28.17
2022-09-29T09:39:58.687Z,29.80
2022-09-29T09:43:10.853Z,29.10
2022-09-29T09:46:23.340Z,28.90
2022-09-29T09:49:33.767Z,27.10
2022-09-29T09:52:47.037Z,27.13
2022-09-29T09:56:03.406Z,27.07
2022-09-29T09:59:33.183Z,25.53
2022-09-29T10:02:42.588Z,25.40
2022-09-29T10:05:49.787Z,24.60
2022-09-29T10:08:54.878Z,24.80
2022-09-29T10:11:58.573Z,23.93
2022-09-29T10:15:16.600Z,24.73
2022-09-29T10:18:28.308Z,24.10
2022-09-29T10:21:40.852Z,23.90
2022-09-29T10:24:45.935Z,24.47
2022-09-29T10:27:54.380Z,22.67
2022-09-29T10:30:58.873Z,21.50
2022-09-29T10:34:17.509Z,20.83
2022-09-29T10:37:25.424Z,19.37
2022-09-29T10:40:30.512Z,18.27
2022-09-29T10:43:39.603Z,17.27
2022-09-29T10:46:54.472Z,17.90
2022-09-29T10:50:17.407Z,17.03
2022-09-29T10:53:35.271Z,16.73
2022-09-29T10:56:49.645Z,16.10
2022-09-29T10:59:56.482Z,16.17
2022-09-29T11:03:10.352Z,15.20
2022-09-29T11:06:16.216Z,11.73
2022-09-29T11:09:39.335Z,11.67
2022-09-29T11:12:45.931Z,11.43
2022-09-29T11:15:50.344Z,10.33
2022-09-29T11:18:58.359Z,9.50
2022-09-29T11:22:29.853Z,8.80
2022-09-29T11:25:59.769Z,6.87
2022-09-29T11:29:34.133Z,6.87
2022-09-29T11:33:05.907Z,6.30
2022-09-29T11:36:21.148Z,7.80
2022-09-29T11:39:41.248Z,5.70
2022-09-29T11:43:07.302Z,6.50
2022-09-29T11:46:34.483Z,5.97
2022-09-29T11:50:21.259Z,4.43
2022-09-29T11:53:54.851Z,4.80
2022-09-29T11:57:11.496Z,5.20
2022-09-29T12:00:19.190Z,4.57
2022-09-29T12:03:47.232Z,4.30
2022-09-29T12:07:06.373Z,3.50
2022-09-29T12:10:36.084Z,4.20
2022-09-29T12:13:52.677Z,4.00
2022-09-29T12:17:03.575Z,4.03
2022-09-29T12:20:20.916Z,3.87
2022-09-29T12:23:30.729Z,5.83
2022-09-29T12:26:36.242Z,5.50
2022-09-29T12:29:45.915Z,6.00
2022-09-29T12:32:57.521Z,6.60
2022-09-29T12:36:36.425Z,6.13
2022-09-29T12:39:47.957Z,5.63
2022-09-29T12:43:11.991Z,5.93
2022-09-29T12:46:26.944Z,5.67
2022-09-29T12:49:41.059Z,4.60
2022-09-29T12:52:57.326Z,5.80
2022-09-29T12:56:07.251Z,4.63
2022-09-29T12:59:26.662Z,5.27
2022-09-29T13:03:12.145Z,5.53
2022-09-29T13:06:59.101Z,4.87
2022-09-29T13:10:57.788Z,4.20
2022-09-29T13:14:41.133Z,4.40
2022-09-29T13:18:11.223Z,4.60
2022-09-29T13:21:28.944Z,5.37
2022-09-29T13:24:54.601Z,4.27
2022-09-29T13:28:01.660Z,4.33
2022-09-29T13:31:11.796Z,4.40
2022-09-29T13:34:31.699Z,3.70
2022-09-29T13:37:48.987Z,3.53
2022-09-29T13:41:18.216Z,4.13
2022-09-29T13:44:29.941Z,4.00
2022-09-29T13:47:35.455Z,3.90
2022-09-29T13:50:45.422Z,3.83
2022-09-29T13:54:09.271Z,3.70
2022-09-29T13:57:30.994Z,3.43
2022-09-29T14:00:44.864Z,3.57
2022-09-29T14:03:48.998Z,3.50
2022-09-29T14:06:52.999Z,4.10
2022-09-29T14:13:09.113Z,3.30
2022-09-29T14:16:48.599Z,3.20
2022-09-29T14:20:02.862Z,3.67
2022-09-29T14:23:11.133Z,3.23
2022-09-29T14:26:46.429Z,3.03
2022-09-29T14:29:56.938Z,3.20
2022-09-29T14:33:09.740Z,3.17
2022-09-29T14:36:19.786Z,2.83
2022-09-29T14:39:27.182Z,3.37
2022-09-29T14:42:32.662Z,3.40
2022-09-29T14:46:26.747Z,3.87
2022-09-29T14:50:24.762Z,3.07
2022-09-29T14:53:57.942Z,2.93
2022-09-29T14:57:13.193Z,3.90
2022-09-29T15:00:20.846Z,3.33
2022-09-29T15:03:30.963Z,3.77
2022-09-29T15:06:36.460Z,4.03
2022-09-29T15:09:45.850Z,3.57
2022-09-29T15:12:50.587Z,3.00
2022-09-29T15:16:01.624Z,3.23
2022-09-29T15:19:41.300Z,3.50
2022-09-29T15:23:10.774Z,3.70
2022-09-29T15:26:16.822Z,3.73
2022-09-29T15:29:21.257Z,3.30
2022-09-29T15:32:29.233Z,3.60
2022-09-29T15:35:33.631Z,3.20
2022-09-29T15:38:41.080Z,3.50
2022-09-29T15:41:45.252Z,3.40
2022-09-29T15:44:56.984Z,3.50
2022-09-29T15:48:05.106Z,3.50
2022-09-29T15:51:19.903Z,3.70
2022-09-29T15:54:25.728Z,3.70
2022-09-29T15:57:44.755Z,3.67
2022-09-29T16:00:48.561Z,3.50
2022-09-29T16:03:57.669Z,4.20
2022-09-29T16:07:01.472Z,5.10
2022-09-29T16:10:15.003Z,3.60
2022-09-29T16:13:23.026Z,3.40
2022-09-29T16:16:37.011Z,3.43
2022-09-29T16:19:45.764Z,3.00
2022-09-29T16:22:50.912Z,2.30
2022-09-29T16:26:37.683Z,2.20
2022-09-29T16:29:41.424Z,1.77
2022-09-29T16:32:45.042Z,2.20
2022-09-29T16:36:02.403Z,2.60
2022-09-29T16:39:08.310Z,1.63
2022-09-29T16:42:21.560Z,1.60
2022-09-29T16:45:25.183Z,1.37
2022-09-29T16:48:33.389Z,1.50
2022-09-29T16:51:45.522Z,1.37
2022-09-29T16:54:49.748Z,1.80
2022-09-29T16:57:59.030Z,2.37
2022-09-29T17:01:05.718Z,2.23
2022-09-29T17:04:09.624Z,3.30
2022-09-29T17:07:17.020Z,3.03
2022-09-29T17:10:23.144Z,2.97
2022-09-29T17:13:35.253Z,2.23
2022-09-29T17:16:41.437Z,4.10
2022-09-29T17:19:45.859Z,3.50
2022-09-29T17:22:51.609Z,3.50
2022-09-29T17:26:15.416Z,2.80
2022-09-29T17:29:19.550Z,3.00
2022-09-29T17:32:23.894Z,2.70
2022-09-29T17:35:31.175Z,2.63
2022-09-29T17:38:34.911Z,4.10
2022-09-29T17:41:42.517Z,4.30
2022-09-29T17:44:50.206Z,3.80
2022-09-29T17:47:54.461Z,3.57
2022-09-29T17:50:59.918Z,2.63
2022-09-29T17:54:04.116Z,2.13
2022-09-29T17:57:08.670Z,2.10
2022-09-29T18:00:19.299Z,2.43
2022-09-29T18:03:23.799Z,3.13
2022-09-29T18:06:28.363Z,3.33
2022-09-29T18:09:32.465Z,3.27
2022-09-29T18:12:36.012Z,3.47
2022-09-29T18:15:44.768Z,4.37
2022-09-29T18:18:48.502Z,5.90
2022-09-29T18:21:52.280Z,5.00
2022-09-29T18:24:55.848Z,4.30
2022-09-29T18:27:59.858Z,2.93
2022-09-29T18:31:12.549Z,3.13
2022-09-29T18:34:20.026Z,3.17
2022-09-29T18:37:23.882Z,3.80
2022-09-29T18:40:29.875Z,3.90
2022-09-29T18:43:33.406Z,3.90
2022-09-29T18:46:39.494Z,3.67
2022-09-29T18:49:43.624Z,4.37
2022-09-29T18:52:48.751Z,4.90
2022-09-29T18:56:03.299Z,4.53
2022-09-29T18:59:07.715Z,5.07
2022-09-29T19:02:14.657Z,5.00
2022-09-29T19:05:21.424Z,5.20
2022-09-29T19:08:25.632Z,5.97
2022-09-29T19:11:29.291Z,5.60
2022-09-29T19:14:34.321Z,19.37
2022-09-29T19:17:40.323Z,25.23
2022-09-29T19:20:43.967Z,13.63
2022-09-29T19:23:48.796Z,13.17
2022-09-29T19:26:52.702Z,11.97
2022-09-29T19:29:59.638Z,13.87
2022-09-29T19:33:09.390Z,16.40
2022-09-29T19:36:18.551Z,14.70
2022-09-29T19:39:23.184Z,20.40
2022-09-29T19:42:27.512Z,23.67
2022-09-29T19:45:41.645Z,10.00
2022-09-29T19:48:47.027Z,11.87
2022-09-29T19:51:54.229Z,31.30
2022-09-29T19:54:58.184Z,28.90
2022-09-29T19:58:02.780Z,18.00
2022-09-29T20:01:07.805Z,10.77
2022-09-29T20:04:14.300Z,8.03
2022-09-29T20:07:18.028Z,6.83
2022-09-29T20:10:22.517Z,6.73
2022-09-29T20:13:26.047Z,6.33
2022-09-29T20:16:29.793Z,6.53
2022-09-29T20:19:35.018Z,6.63
2022-09-29T20:22:39.351Z,6.90
2022-09-29T20:25:42.904Z,6.77
2022-09-29T20:28:50.507Z,7.27
2022-09-29T20:31:54.558Z,6.57
2022-09-29T20:34:59.630Z,7.67
2022-09-29T20:38:03.613Z,6.10
2022-09-29T20:41:08.351Z,6.60
2022-09-29T20:44:12.606Z,6.30
2022-09-29T20:47:18.789Z,6.23
2022-09-29T20:50:23.849Z,6.00
2022-09-29T20:53:27.645Z,6.23
2022-09-29T20:56:40.300Z,5.90
2022-09-29T20:59:44.262Z,6.77
2022-09-29T21:02:50.373Z,6.90
2022-09-29T21:05:55.371Z,6.80
2022-09-29T21:09:00.405Z,6.87
2022-09-29T21:12:04.129Z,7.07
2022-09-29T21:15:08.833Z,6.57
2022-09-29T21:18:12.398Z,6.57
2022-09-29T21:21:17.434Z,6.20
2022-09-29T21:24:21.062Z,6.00
2022-09-29T21:27:24.622Z,7.13
2022-09-29T21:30:28.143Z,6.33
2022-09-29T21:33:32.188Z,6.40
2022-09-29T21:36:38.395Z,6.70
2022-09-29T21:39:42.175Z,5.43
2022-09-29T21:42:45.730Z,5.67
2022-09-29T21:46:09.909Z,6.27
2022-09-29T21:49:16.668Z,5.53
2022-09-29T21:52:21.808Z,5.73
2022-09-29T21:55:25.506Z,5.20
2022-09-29T21:58:30.065Z,5.40
2022-09-29T22:01:33.978Z,5.93
2022-09-29T22:04:37.626Z,6.43
2022-09-29T22:07:42.618Z,6.50
2022-09-29T22:10:50.207Z,6.83
2022-09-29T22:13:56.979Z,5.87
2022-09-29T22:17:00.550Z,6.40
2022-09-29T22:20:04.496Z,6.53
2022-09-29T22:23:09.458Z,5.93
2022-09-29T22:26:15.376Z,6.13
2022-09-29T22:29:19.070Z,5.90
2022-09-29T22:32:23.499Z,5.53
2022-09-29T22:35:27.303Z,6.00
2022-09-29T22:38:33.330Z,6.23
2022-09-29T22:41:39.881Z,5.87
2022-09-29T22:44:43.570Z,6.07
2022-09-29T22:47:47.160Z,6.67
2022-09-29T22:50:50.912Z,6.53
2022-09-29T22:53:55.912Z,6.43
2022-09-29T22:56:59.480Z,6.17
2022-09-29T23:00:04.016Z,6.10
2022-09-29T23:03:10.194Z,6.10
2022-09-29T23:06:14.935Z,6.30
2022-09-29T23:09:20.071Z,6.43
2022-09-29T23:12:28.575Z,6.20
2022-09-29T23:15:40.097Z,6.00
2022-09-29T23:18:45.963Z,6.50
2022-09-29T23:21:49.610Z,6.77
2022-09-29T23:24:55.271Z,6.23
2022-09-29T23:27:58.874Z,6.60
2022-09-29T23:31:05.629Z,6.33
2022-09-29T23:34:13.674Z,7.10
2022-09-29T23:37:17.399Z,7.07
2022-09-29T23:40:21.407Z,6.67
2022-09-29T23:43:25.119Z,7.00
2022-09-29T23:46:31.721Z,6.93
2022-09-29T23:49:35.735Z,7.27
2022-09-29T23:52:39.772Z,7.97
2022-09-29T23:55:44.706Z,7.50
2022-09-29T23:58:48.430Z,7.03
